Tanner Field, CO

06:54 AM MST die 11o December, anno 2016 (GMT -0700)
East Lewis | | Change Station

Elev 6909 ft 37.52 °N, 108.63 °W | Updated 8 minutes ago

Aequaliter Nubila
Aequaliter Nubila
64.5 °F
Feels Like 64.5 °F
N
0.0
Ventus Variabilis Ventus from Magis Eurus quam Auster
Gusts 0.0 mph

Hodie
High -- | Low -- °F
--% Chance of Precip.
Yesterday
High -- | Low -- °F
Precip. -- in
Pressio 30.01 in
Visibilitas 10.0 milia passuum
Clouds Plerumque Nubila 3000 ft
Aequaliter Nubila 3700 ft
Frigus in quo Ros apparet 42 °F
Umor 44%
Rainfall 0.00 in
Snow Depth Not available.
7:19 AM 4:56 PM
Waxing Gibbous, 91% visible
SPECI KCEZ 111341Z AUTO 00000KT 10SM BKN030 OVC037 03/02 A3001 RMK AO2 RAE19UPB19E24 P0001 T00330022
Pressio 30.01 in
Visibilitas 10.0 milia passuum
Clouds Plerumque Nubila 3000 ft
Aequaliter Nubila 3700 ft
Frigus in quo Ros apparet 42 °F
Umor 44%
Rainfall 0.00 in
Snow Depth Not available.
7:19 AM 4:56 PM
Waxing Gibbous, 91% visible
SPECI KCEZ 111341Z AUTO 00000KT 10SM BKN030 OVC037 03/02 A3001 RMK AO2 RAE19UPB19E24 P0001 T00330022

10-Day Weather Forecast

Almanac

Astronomy

Dec. 11, 2016 Rise Set
Actual Time
Civil Twilight
Nautical Twilight
Astronomical Twilight
Moon
Length Of Visible Light
Length of Day
Tomorrow will be .
, % of the Moon is Illuminated

Today's Extremes

State Highs State Lows

Community

WunderPhotos

Upload Photos

1,956,708 photos uploaded!

WunderBlog® & News

Nearby

Air Quality

  Air Quality AQ Index Pollutant
Not available.

Snow Depth

Station Depth Elevation

Earthquake Activity

City Distance Mag. Time & Date
Minimum magnitude displayed is 2.5.

Coastal Water Temperatures

Locus Calor

Stations

Nearby Weather Stations

Station Location Temp Frigus Venti Frigus in quo Ros apparet Umor Ventus Precip. Elev Renovata Type
                   

Watches & Warnings

There are currently no watches in effect.